Time;durP1;ratioP1;P1;durP2;ratioP2;P2;SDS_P1;SDS_P2;PMS_P1;PMS_P2;Temp;Humidity;BMP_temperature;BMP_pressure;BME280_temperature;BME280_humidity;BME280_pressure;Samples;Min_cycle;Max_cycle;Signal;HPM_P1;HPM_P2
2023/04/15 00:00:02;;;;;;;13.23;6.95;;;;;;;9.14;74.99;94085.41;4990773;28;20431;-76
2023/04/15 00:02:28;;;;;;;14.07;6.57;;;;;;;9.14;73.87;94078.34;5004406;28;20422;-76
2023/04/15 00:04:53;;;;;;;11.67;5.93;;;;;;;9.28;73.96;94090.28;5021731;28;20708;-76
2023/04/15 00:07:19;;;;;;;16.98;7.03;;;;;;;8.98;74.17;94081.56;4993309;28;20406;-76
2023/04/15 00:09:44;;;;;;;13.97;7.33;;;;;;;9.11;75.50;94093.72;5024218;28;20650;-76
2023/04/15 00:12:11;;;;;;;12.33;6.57;;;;;;;9.32;75.33;94090.66;5003931;28;20180;-76
2023/04/15 00:14:36;;;;;;;16.10;7.67;;;;;;;9.20;74.84;94064.31;4994750;28;20479;-76
2023/04/15 00:17:03;;;;;;;14.60;7.37;;;;;;;9.02;75.82;94062.53;5010377;28;20419;-76
2023/04/15 00:19:29;;;;;;;12.63;6.60;;;;;;;9.23;75.22;94081.47;4996318;28;20188;-76
2023/04/15 00:21:55;;;;;;;12.77;6.47;;;;;;;9.05;75.40;94074.41;5003645;28;20806;-76
2023/04/15 00:24:20;;;;;;;11.67;6.90;;;;;;;8.88;75.63;94086.53;5011477;28;20926;-76
2023/04/15 00:26:46;;;;;;;13.05;6.60;;;;;;;9.01;76.35;94083.75;5010217;28;20845;-76
2023/04/15 00:29:12;;;;;;;12.30;6.23;;;;;;;9.15;76.60;94085.19;5026685;28;20204;-77
2023/04/15 00:31:37;;;;;;;13.07;7.22;;;;;;;9.26;77.81;94091.50;5003475;28;20533;-77
2023/04/15 00:34:03;;;;;;;10.50;6.33;;;;;;;9.41;78.18;94105.88;5001540;28;20693;-77
2023/04/15 00:36:29;;;;;;;9.77;6.37;;;;;;;9.46;78.24;94098.13;4997904;28;20220;-76
2023/04/15 00:38:54;;;;;;;11.37;5.90;;;;;;;9.50;77.89;94098.50;5018995;28;20189;-77
2023/04/15 00:41:20;;;;;;;9.17;5.47;;;;;;;9.58;78.11;94097.38;5011082;28;20264;-77
2023/04/15 00:43:45;;;;;;;10.30;6.43;;;;;;;9.49;78.88;94075.88;5003475;28;20200;-76
2023/04/15 00:46:14;;;;;;;12.80;6.10;;;;;;;9.62;79.17;94083.56;5000795;28;20592;-76
2023/04/15 00:48:41;;;;;;;10.50;5.17;;;;;;;9.65;78.52;94075.25;5014933;28;20212;-77
2023/04/15 00:51:07;;;;;;;14.33;6.23;;;;;;;9.57;78.74;94066.88;5010821;28;20761;-76
2023/04/15 00:53:32;;;;;;;11.30;5.53;;;;;;;9.39;79.94;94081.66;5009884;28;20472;-76
2023/04/15 00:55:58;;;;;;;9.33;4.73;;;;;;;9.14;78.85;94046.03;5003922;28;20311;-76
2023/04/15 00:58:23;;;;;;;10.33;5.10;;;;;;;9.36;79.37;94084.72;5003351;28;20646;-76
2023/04/15 01:00:53;;;;;;;12.50;4.97;;;;;;;9.32;80.05;94080.94;5003358;28;20181;-76
2023/04/15 01:03:19;;;;;;;10.57;4.67;;;;;;;9.33;81.30;94100.94;5003382;28;20178;-76
2023/04/15 01:05:45;;;;;;;17.70;5.47;;;;;;;9.33;81.99;94108.81;5003279;28;20660;-77
2023/04/15 01:08:10;;;;;;;12.10;5.97;;;;;;;9.30;82.63;94095.31;5012860;28;20536;-76
2023/04/15 01:10:36;;;;;;;13.23;4.73;;;;;;;9.34;82.53;94105.13;5014546;28;20176;-77
2023/04/15 01:13:02;;;;;;;9.27;5.30;;;;;;;9.34;82.11;94099.13;5009800;28;20267;-76
2023/04/15 01:15:28;;;;;;;12.23;4.90;;;;;;;9.18;82.84;94066.38;4997240;28;20193;-76
2023/04/15 01:17:54;;;;;;;12.10;5.73;;;;;;;9.28;82.58;94073.72;4996945;28;20184;-76
2023/04/15 01:20:21;;;;;;;11.65;6.68;;;;;;;9.13;83.78;94095.13;5003608;28;20424;-76
2023/04/15 01:22:47;;;;;;;9.87;4.93;;;;;;;9.11;83.70;94093.72;5010071;28;20188;-76
2023/04/15 01:25:17;;;;;;;6.77;4.70;;;;;;;9.12;83.97;94083.00;5014006;28;20184;-76
2023/04/15 01:27:43;;;;;;;11.50;5.30;;;;;;;9.04;84.32;94075.44;5015882;28;20201;-76
2023/04/15 01:30:09;;;;;;;8.93;5.40;;;;;;;9.14;84.03;94082.78;4996807;28;20607;-77
2023/04/15 01:32:35;;;;;;;10.50;5.07;;;;;;;9.11;83.99;94088.47;5026470;28;20188;-77
2023/04/15 01:35:01;;;;;;;9.77;5.17;;;;;;;9.02;83.87;94074.84;5010328;28;20232;-77
2023/04/15 01:37:28;;;;;;;6.60;4.73;;;;;;;9.03;84.04;94086.94;5009058;28;20220;-76
2023/04/15 01:39:53;;;;;;;10.10;5.67;;;;;;;8.97;83.94;94088.66;4999128;28;20177;-76
2023/04/15 01:42:20;;;;;;;8.83;5.67;;;;;;;8.94;84.50;94091.69;5002719;28;20189;-76
2023/04/15 01:44:46;;;;;;;9.07;5.53;;;;;;;8.95;84.60;94095.13;5005021;28;20215;-76
2023/04/15 01:47:12;;;;;;;9.57;5.33;;;;;;;8.93;84.95;94091.91;5013871;28;20681;-76
2023/04/15 01:49:37;;;;;;;14.17;5.97;;;;;;;8.89;84.64;94096.00;4998646;28;20181;-76
2023/04/15 01:52:02;;;;;;;10.20;5.80;;;;;;;8.91;84.63;94096.56;5011133;28;20185;-76
2023/04/15 01:54:28;;;;;;;11.10;6.13;;;;;;;8.89;84.16;94094.19;5002742;28;20179;-76
2023/04/15 01:56:53;;;;;;;12.50;6.10;;;;;;;8.78;83.74;94100.16;5013190;28;20191;-76
2023/04/15 01:59:18;;;;;;;9.33;5.27;;;;;;;8.48;84.14;94086.13;5007293;28;20185;-77
2023/04/15 02:01:44;;;;;;;13.73;7.00;;;;;;;8.08;84.41;94077.78;5010226;28;20537;-76
2023/04/15 02:04:15;;;;;;;10.27;6.17;;;;;;;8.30;84.50;94113.09;5013187;28;20181;-76
2023/04/15 02:06:42;;;;;;;11.93;6.00;;;;;;;8.29;84.35;94104.44;5012483;28;20429;-76
2023/04/15 02:09:08;;;;;;;12.87;4.97;;;;;;;8.26;84.25;94096.19;5004543;28;20677;-77
2023/04/15 02:11:34;;;;;;;9.17;5.30;;;;;;;8.48;84.37;94107.91;5003395;28;20176;-76
2023/04/15 02:14:00;;;;;;;11.20;5.87;;;;;;;8.49;84.54;94099.03;5021263;28;20280;-77
2023/04/15 02:16:25;;;;;;;13.37;6.33;;;;;;;8.50;84.42;94100.63;5004595;28;20289;-76
2023/04/15 02:18:51;;;;;;;11.00;6.63;;;;;;;8.52;84.82;94097.81;5005398;28;20187;-76
2023/04/15 02:21:17;;;;;;;11.00;6.20;;;;;;;8.40;84.51;94076.72;5010820;28;20184;-76
2023/04/15 02:23:43;;;;;;;10.27;6.25;;;;;;;8.55;84.06;94098.19;5001345;28;20420;-76
2023/04/15 02:26:08;;;;;;;11.80;7.10;;;;;;;8.54;84.35;94096.56;5002139;28;20189;-76
2023/04/15 02:28:34;;;;;;;10.97;7.63;;;;;;;8.36;84.18;94083.44;5000540;28;20581;-76
2023/04/15 02:31:01;;;;;;;14.88;9.02;;;;;;;8.32;84.20;94095.34;5000690;28;20494;-76
2023/04/15 02:33:26;;;;;;;12.60;8.20;;;;;;;8.15;84.37;94089.03;4997516;28;20176;-76
2023/04/15 02:35:52;;;;;;;13.47;7.73;;;;;;;8.24;83.65;94106.09;5006126;28;20224;-76
2023/04/15 02:38:17;;;;;;;15.13;9.70;;;;;;;8.10;84.18;94101.97;5000300;28;20482;-76
2023/04/15 02:40:43;;;;;;;16.63;8.97;;;;;;;8.15;84.19;94104.75;5027985;28;20194;-76
2023/04/15 02:43:08;;;;;;;14.03;8.63;;;;;;;8.14;84.04;94103.13;5012830;28;20260;-76
2023/04/15 02:45:34;;;;;;;15.07;8.27;;;;;;;8.09;83.56;94111.66;4997430;28;20296;-76
2023/04/15 02:48:04;;;;;;;13.27;8.20;;;;;;;8.06;83.42;94108.66;5001862;28;20240;-76
2023/04/15 02:50:30;;;;;;;12.70;7.87;;;;;;;7.90;83.62;94097.69;4996068;28;20257;-76
2023/04/15 02:52:55;;;;;;;11.83;7.73;;;;;;;8.00;83.51;94110.31;5012515;28;20650;-76
2023/04/15 02:55:21;;;;;;;12.67;7.27;;;;;;;7.99;83.07;94111.31;5004992;28;20183;-76
2023/04/15 02:57:46;;;;;;;11.52;6.50;;;;;;;7.92;82.63;94107.97;5000261;28;20423;-76
2023/04/15 03:00:13;;;;;;;9.33;6.20;;;;;;;7.85;82.97;94112.44;5000300;28;20550;-76
2023/04/15 03:02:38;;;;;;;10.77;6.30;;;;;;;7.84;82.95;94118.69;5001674;28;20177;-76
2023/04/15 03:05:08;;;;;;;9.50;5.57;;;;;;;7.84;82.19;94123.94;4992715;28;20574;-76
2023/04/15 03:07:33;;;;;;;10.97;5.67;;;;;;;7.81;82.47;94119.91;4992632;28;20681;-76
2023/04/15 03:09:58;;;;;;;11.47;5.50;;;;;;;7.73;82.54;94125.41;5005361;28;20191;-76
2023/04/15 03:12:24;;;;;;;9.17;6.07;;;;;;;7.74;82.91;94128.84;5012227;28;20213;-76
2023/04/15 03:14:49;;;;;;;12.10;6.40;;;;;;;7.68;82.52;94133.13;5010942;28;20424;-76
2023/04/15 03:17:15;;;;;;;11.23;6.13;;;;;;;7.67;82.64;94134.13;5003235;28;20180;-76
2023/04/15 03:19:40;;;;;;;10.77;5.97;;;;;;;7.60;82.24;94128.13;5003372;28;20188;-76
2023/04/15 03:22:06;;;;;;;10.53;5.37;;;;;;;7.55;82.82;94120.06;5012030;28;20552;-76
2023/04/15 03:24:31;;;;;;;10.77;5.90;;;;;;;7.59;82.69;94137.00;4994207;28;20419;-76
2023/04/15 03:26:56;;;;;;;11.53;5.57;;;;;;;7.56;82.73;94140.81;5009679;28;20625;-75
2023/04/15 03:29:22;;;;;;;11.27;6.00;;;;;;;7.56;82.95;94140.81;5005145;28;20205;-76
2023/04/15 03:31:48;;;;;;;11.27;6.00;;;;;;;7.48;83.02;94141.06;5011873;28;20243;-76
2023/04/15 03:34:13;;;;;;;12.10;7.27;;;;;;;7.42;83.49;94146.34;5011697;28;20226;-76
2023/04/15 03:36:38;;;;;;;10.63;6.57;;;;;;;7.38;83.52;94145.13;4991998;28;20228;-76
2023/04/15 03:39:04;;;;;;;13.10;6.43;;;;;;;7.36;83.48;94153.19;5005009;28;20237;-76
2023/04/15 03:41:29;;;;;;;8.60;5.73;;;;;;;7.31;83.94;94160.88;5000611;28;20177;-76
2023/04/15 03:43:55;;;;;;;8.10;5.47;;;;;;;7.37;83.50;94167.91;5016464;28;20177;-76
2023/04/15 03:46:21;;;;;;;8.53;6.20;;;;;;;7.35;83.59;94171.75;5011329;28;20267;-76
2023/04/15 03:48:47;;;;;;;11.07;6.77;;;;;;;7.19;83.60;94167.75;5002660;28;20225;-76
2023/04/15 03:51:12;;;;;;;12.17;6.17;;;;;;;7.21;83.43;94168.38;5011379;28;20214;-76
2023/04/15 03:53:37;;;;;;;8.37;6.00;;;;;;;7.28;83.18;94187.47;5011639;28;20282;-76
2023/04/15 03:56:03;;;;;;;11.83;6.87;;;;;;;7.28;83.54;94189.28;5011727;28;20224;-75
2023/04/15 03:58:28;;;;;;;10.03;5.43;;;;;;;7.23;83.30;94186.47;4998166;28;20181;-76
2023/04/15 04:00:54;;;;;;;8.73;5.40;;;;;;;7.28;83.09;94189.28;4994618;28;20308;-76
2023/04/15 04:03:19;;;;;;;8.60;4.97;;;;;;;7.02;83.38;94162.19;5000712;28;20180;-76
2023/04/15 04:05:45;;;;;;;13.47;6.60;;;;;;;7.06;82.82;94173.84;5011235;28;20395;-76
2023/04/15 04:08:12;;;;;;;11.73;6.43;;;;;;;6.65;83.63;94166.31;5006452;28;20211;-76
2023/04/15 04:10:38;;;;;;;12.07;6.67;;;;;;;6.34;85.71;94164.31;5000565;28;20666;-76
2023/04/15 04:13:04;;;;;;;11.30;7.03;;;;;;;6.55;85.46;94192.06;5010054;28;20173;-76
2023/04/15 04:15:29;;;;;;;12.17;6.37;;;;;;;6.51;85.87;94190.03;4999562;28;20295;-76
2023/04/15 04:17:55;;;;;;;13.83;7.93;;;;;;;6.57;86.71;94168.34;5000347;28;20165;-76
2023/04/15 04:20:20;;;;;;;12.63;6.87;;;;;;;7.00;84.47;94179.91;5000216;28;20260;-76
2023/04/15 04:22:46;;;;;;;12.73;6.53;;;;;;;7.50;83.10;94167.84;5000197;28;20181;-76
2023/04/15 04:25:11;;;;;;;17.30;7.70;;;;;;;8.21;80.35;94179.94;5000343;28;20181;-76
2023/04/15 04:27:37;;;;;;;16.13;7.80;;;;;;;8.99;77.67;94193.44;4991629;28;20575;-76
2023/04/15 04:30:03;;;;;;;20.03;8.43;;;;;;;9.67;75.42;94198.53;4999552;28;20184;-76
2023/04/15 04:32:29;;;;;;;13.43;7.60;;;;;;;10.36;72.31;94197.19;5011407;28;20184;-76
2023/04/15 04:34:55;;;;;;;14.47;8.47;;;;;;;11.12;69.64;94202.41;5011161;28;20920;-76
2023/04/15 04:37:22;;;;;;;15.97;7.43;;;;;;;11.75;67.77;94198.22;5005414;28;20227;-76
2023/04/15 04:39:48;;;;;;;14.57;8.07;;;;;;;12.21;64.87;94186.66;5008841;28;20200;-76
2023/04/15 04:42:14;;;;;;;16.37;9.83;;;;;;;12.87;62.63;94212.34;5011182;28;20180;-76
2023/04/15 04:44:39;;;;;;;17.93;10.97;;;;;;;13.45;61.23;94219.03;5004288;28;20184;-76
2023/04/15 04:47:06;;;;;;;17.47;9.97;;;;;;;14.02;58.37;94213.38;5004749;28;20180;-76
2023/04/15 04:49:31;;;;;;;19.67;10.83;;;;;;;14.81;56.79;94235.66;5010942;28;20227;-76
2023/04/15 04:51:57;;;;;;;25.57;13.43;;;;;;;15.61;54.26;94231.22;5002009;28;20181;-76
2023/04/15 04:54:22;;;;;;;26.63;15.50;;;;;;;16.32;51.87;94228.88;5006549;28;20214;-76
2023/04/15 04:56:48;;;;;;;28.20;15.23;;;;;;;17.03;50.25;94215.72;5009701;28;20189;-77
2023/04/15 04:59:13;;;;;;;19.80;10.00;;;;;;;17.81;46.89;94226.81;5014618;28;20184;-77
2023/04/15 05:01:39;;;;;;;7.22;4.68;;;;;;;18.71;43.79;94232.81;5003844;28;20181;-76
2023/04/15 05:04:06;;;;;;;6.45;4.22;;;;;;;19.50;42.63;94235.16;5008447;28;20551;-77
2023/04/15 05:06:32;;;;;;;8.45;4.40;;;;;;;19.86;40.99;94226.78;4996313;28;20189;-77
2023/04/15 05:08:57;;;;;;;5.65;3.88;;;;;;;20.57;39.44;94242.81;5005616;28;20231;-77
2023/04/15 05:11:22;;;;;;;7.13;4.43;;;;;;;20.63;38.58;94256.91;5029980;28;20578;-77
2023/04/15 05:13:48;;;;;;;7.57;4.07;;;;;;;21.07;37.94;94251.97;5014529;28;20238;-77
2023/04/15 05:16:13;;;;;;;8.10;3.85;;;;;;;21.57;37.22;94248.81;5007498;28;20189;-77
2023/04/15 05:18:39;;;;;;;10.70;4.72;;;;;;;22.27;35.78;94262.03;4994844;28;20173;-77
2023/04/15 05:21:05;;;;;;;13.60;6.40;;;;;;;22.59;34.37;94259.22;5006329;28;20313;-77
2023/04/15 05:23:30;;;;;;;9.00;5.03;;;;;;;22.17;34.97;94261.13;5000526;28;20181;-77
2023/04/15 05:25:55;;;;;;;8.43;3.97;;;;;;;22.85;35.23;94271.03;5017041;28;20634;-77
2023/04/15 05:28:21;;;;;;;7.82;5.53;;;;;;;23.08;32.80;94258.47;5004772;28;20196;-77
2023/04/15 05:30:46;;;;;;;6.28;3.70;;;;;;;23.75;31.63;94269.25;5003962;28;20231;-77
2023/04/15 05:33:12;;;;;;;5.40;3.85;;;;;;;24.67;31.00;94248.72;5014030;28;20239;-77
2023/04/15 05:35:37;;;;;;;8.70;4.22;;;;;;;24.66;29.21;94263.28;4997828;28;20180;-78
2023/04/15 05:38:02;;;;;;;6.43;3.97;;;;;;;25.07;29.63;94257.53;4998693;28;20173;-78
2023/04/15 05:40:29;;;;;;;6.03;3.72;;;;;;;25.63;28.65;94258.50;5006442;28;20538;-77
2023/04/15 05:42:55;;;;;;;6.28;4.05;;;;;;;25.62;27.87;94248.81;5005509;28;20311;-78
2023/04/15 05:45:20;;;;;;;9.75;5.25;;;;;;;26.19;27.56;94257.41;4997873;28;20676;-78
2023/04/15 05:47:46;;;;;;;5.68;4.03;;;;;;;26.87;27.38;94258.19;5007544;28;20200;-78
2023/04/15 05:50:11;;;;;;;7.35;3.50;;;;;;;27.28;26.01;94263.66;5002995;28;20169;-78
2023/04/15 05:52:37;;;;;;;7.47;3.80;;;;;;;27.73;26.96;94263.75;5008813;28;20176;-78
2023/04/15 05:55:02;;;;;;;7.13;3.95;;;;;;;28.13;26.01;94258.56;5005540;28;20176;-78
2023/04/15 05:57:28;;;;;;;8.48;3.70;;;;;;;28.84;25.04;94262.84;5005072;28;20177;-78
2023/04/15 05:59:54;;;;;;;5.43;4.13;;;;;;;29.56;23.66;94269.25;5013560;28;20218;-78
2023/04/15 06:02:20;;;;;;;8.02;4.63;;;;;;;29.66;23.74;94271.50;5005151;28;20569;-78
2023/04/15 06:04:45;;;;;;;12.15;4.35;;;;;;;29.59;23.15;94266.63;5011678;28;20176;-78
2023/04/15 06:07:10;;;;;;;9.60;4.55;;;;;;;29.80;23.29;94273.78;5004578;28;20181;-78
2023/04/15 06:09:36;;;;;;;6.97;4.00;;;;;;;29.54;22.77;94271.53;5001057;28;20195;-78
2023/04/15 06:12:01;;;;;;;7.28;3.92;;;;;;;29.47;22.13;94277.53;5002844;28;20612;-78
2023/04/15 06:14:27;;;;;;;6.70;4.72;;;;;;;29.27;22.96;94270.31;4993984;28;20204;-78
2023/04/15 06:16:53;;;;;;;9.35;5.20;;;;;;;29.20;22.75;94270.91;5012852;28;20562;-77
2023/04/15 06:19:19;;;;;;;7.20;4.82;;;;;;;28.71;23.50;94277.50;5010628;28;20181;-78
2023/04/15 06:21:45;;;;;;;6.10;3.70;;;;;;;28.43;24.44;94282.78;4998490;28;20180;-78
2023/04/15 06:24:10;;;;;;;10.20;4.28;;;;;;;28.15;24.10;94290.72;5008211;28;20180;-78
2023/04/15 06:26:36;;;;;;;5.95;4.07;;;;;;;27.28;24.78;94290.69;4999798;28;20188;-78
2023/04/15 06:29:01;;;;;;;9.00;5.15;;;;;;;26.44;25.66;94288.13;4997471;28;20200;-77
2023/04/15 06:31:27;;;;;;;8.95;4.50;;;;;;;25.78;27.29;94284.94;5008544;28;20187;-77
2023/04/15 06:33:52;;;;;;;9.50;5.03;;;;;;;25.23;27.27;94290.19;4995529;28;20232;-77
2023/04/15 06:36:18;;;;;;;7.35;4.35;;;;;;;24.70;28.75;94299.28;5012629;28;20220;-77
2023/04/15 06:38:44;;;;;;;8.68;4.85;;;;;;;24.56;30.21;94296.69;4999957;28;20165;-77
2023/04/15 06:41:09;;;;;;;11.27;5.75;;;;;;;23.64;29.39;94287.50;4993381;28;20571;-77
2023/04/15 06:43:35;;;;;;;10.50;5.72;;;;;;;23.03;30.70;94296.16;4999988;28;20180;-77
2023/04/15 06:46:01;;;;;;;10.65;5.75;;;;;;;22.66;31.61;94297.16;4997694;28;20185;-77
2023/04/15 06:48:26;;;;;;;8.75;5.00;;;;;;;22.46;31.83;94282.31;4995102;28;20232;-77
2023/04/15 06:50:51;;;;;;;15.20;5.57;;;;;;;22.51;32.54;94300.16;5001908;28;20197;-77
2023/04/15 06:53:17;;;;;;;7.45;4.90;;;;;;;22.42;32.15;94300.06;5001667;28;20177;-77
2023/04/15 06:55:43;;;;;;;11.13;5.18;;;;;;;22.19;32.24;94301.88;5012131;28;20176;-76
2023/04/15 06:58:08;;;;;;;9.52;4.57;;;;;;;21.64;33.22;94300.91;4999064;28;20180;-76
2023/04/15 07:00:34;;;;;;;13.45;5.15;;;;;;;21.43;35.77;94291.63;5000800;28;20177;-77
2023/04/15 07:03:02;;;;;;;12.18;4.57;;;;;;;21.54;36.27;94289.56;4998113;28;20212;-79
2023/04/15 07:05:31;;;;;;;8.75;4.95;;;;;;;21.74;35.41;94276.63;5012896;28;20533;-77
2023/04/15 07:07:57;;;;;;;8.48;5.32;;;;;;;21.69;33.33;94260.66;4999053;28;20187;-78
2023/04/15 07:10:22;;;;;;;12.25;5.50;;;;;;;21.21;34.56;94272.69;5012168;28;20180;-77
2023/04/15 07:12:49;;;;;;;9.82;4.57;;;;;;;20.08;35.47;94293.06;5008469;28;20225;-80
2023/04/15 07:15:15;;;;;;;10.20;4.72;;;;;;;19.98;37.58;94286.75;5003688;28;20271;-80
2023/04/15 07:17:42;;;;;;;8.40;4.63;;;;;;;20.41;35.81;94294.88;4997298;28;20611;-79
2023/04/15 07:20:08;;;;;;;7.07;4.78;;;;;;;20.20;36.56;94285.47;5001620;28;20176;-79
2023/04/15 07:22:33;;;;;;;11.63;4.60;;;;;;;19.76;36.29;94248.25;4999659;28;21029;-79
2023/04/15 07:24:58;;;;;;;6.15;3.97;;;;;;;20.42;36.34;94298.34;5011429;28;20184;-80
2023/04/15 07:27:24;;;;;;;6.70;4.68;;;;;;;20.09;36.96;94255.38;5012676;28;20173;-80
2023/04/15 07:29:50;;;;;;;10.02;4.70;;;;;;;20.90;36.67;94281.16;4999728;28;20173;-81
2023/04/15 07:32:16;;;;;;;9.50;5.03;;;;;;;21.03;36.99;94287.63;5007076;28;20207;-81
2023/04/15 07:34:42;;;;;;;5.90;4.13;;;;;;;20.75;37.54;94296.63;5001383;28;20193;-80
2023/04/15 07:37:07;;;;;;;7.50;3.78;;;;;;;20.54;34.83;94294.19;5004569;28;20594;-79
2023/04/15 07:39:32;;;;;;;4.70;3.58;;;;;;;20.64;36.83;94295.94;5003335;28;20219;-78
2023/04/15 07:41:58;;;;;;;5.80;3.25;;;;;;;20.71;35.64;94278.44;4994419;28;20184;-79
2023/04/15 07:44:25;;;;;;;7.50;2.55;;;;;;;20.42;34.23;94282.28;4999143;28;20260;-79
2023/04/15 07:46:51;;;;;;;4.30;1.63;;;;;;;20.69;35.06;94282.47;5000548;28;20184;-77
2023/04/15 07:49:18;;;;;;;3.08;1.55;;;;;;;21.16;34.50;94292.28;5026751;28;20198;-77
2023/04/15 07:51:43;;;;;;;3.25;1.50;;;;;;;20.62;35.71;94282.84;5000508;28;20650;-77
2023/04/15 07:54:09;;;;;;;5.20;1.30;;;;;;;20.16;34.43;94295.13;5016199;28;20183;-78
2023/04/15 07:56:34;;;;;;;1.65;1.40;;;;;;;20.10;36.35;94306.97;5008781;28;20200;-76
2023/04/15 07:59:01;;;;;;;4.25;1.95;;;;;;;20.42;36.48;94295.66;5001225;28;20180;-77
2023/04/15 08:01:26;;;;;;;4.70;2.00;;;;;;;20.89;36.50;94303.63;5005918;28;20200;-78
2023/04/15 08:03:52;;;;;;;4.75;1.73;;;;;;;21.58;35.44;94287.91;5011521;28;20266;-78
2023/04/15 08:06:17;;;;;;;1.77;1.30;;;;;;;22.00;31.79;94295.78;5000493;28;20173;-78
2023/04/15 08:08:43;;;;;;;5.28;3.10;;;;;;;21.09;32.15;94302.56;4999617;28;20573;-77
2023/04/15 08:11:08;;;;;;;4.50;3.00;;;;;;;20.04;34.46;94297.41;5003324;28;20230;-78
2023/04/15 08:13:34;;;;;;;6.47;2.97;;;;;;;19.54;36.07;94310.16;4997359;28;20172;-78
2023/04/15 08:16:18;;;;;;;3.33;2.90;;;;;;;19.66;34.75;94318.59;4998971;28;20229;-78
2023/04/15 08:18:44;;;;;;;6.00;2.33;;;;;;;20.13;34.29;94309.88;5000210;28;20283;-77
2023/04/15 08:21:10;;;;;;;9.18;2.78;;;;;;;20.24;33.37;94314.00;5001714;28;20203;-78
2023/04/15 08:23:36;;;;;;;3.00;2.13;;;;;;;20.05;35.12;94293.66;4997880;28;20207;-78
2023/04/15 08:26:02;;;;;;;7.40;1.48;;;;;;;19.98;32.01;94292.09;4998758;28;20176;-76
2023/04/15 08:28:27;;;;;;;2.75;1.75;;;;;;;19.81;32.69;94283.72;5002014;28;20581;-80
2023/04/15 08:30:53;;;;;;;3.92;1.88;;;;;;;19.40;32.94;94293.94;5004874;28;20169;-77
2023/04/15 08:33:18;;;;;;;3.97;1.85;;;;;;;18.30;36.10;94310.28;5006774;28;20551;-78
2023/04/15 08:35:43;;;;;;;3.88;2.08;;;;;;;17.81;36.85;94288.84;5007486;28;20205;-78
2023/04/15 08:38:09;;;;;;;2.05;1.50;;;;;;;17.84;36.28;94298.16;5008755;28;20174;-78
2023/04/15 08:40:40;;;;;;;5.05;2.97;;;;;;;17.52;37.16;94269.16;5004934;28;20291;-77
2023/04/15 08:43:10;;;;;;;3.15;1.40;;;;;;;17.53;39.59;94292.84;5011059;28;20180;-77
2023/04/15 08:45:38;;;;;;;5.15;1.52;;;;;;;17.42;38.32;94293.91;5008852;28;20177;-77
2023/04/15 08:48:05;;;;;;;2.55;1.48;;;;;;;17.53;40.15;94290.19;5010243;28;20235;-77
2023/04/15 08:50:31;;;;;;;7.00;1.50;;;;;;;17.76;39.59;94291.50;5017338;28;20600;-77
2023/04/15 08:52:58;;;;;;;2.92;1.92;;;;;;;17.38;37.85;94295.53;4998698;28;20181;-77
2023/04/15 08:55:32;;;;;;;2.50;1.60;;;;;;;17.29;38.13;94286.47;5003887;28;20181;-79
2023/04/15 08:57:58;;;;;;;2.92;1.52;;;;;;;16.99;36.63;94284.59;4995052;28;20699;-77
2023/04/15 09:00:24;;;;;;;3.40;1.70;;;;;;;16.59;39.06;94262.16;4997823;28;20185;-77
2023/04/15 09:02:51;;;;;;;4.85;2.53;;;;;;;17.06;40.63;94274.47;5009129;28;20236;-77
2023/04/15 09:05:16;;;;;;;6.53;2.25;;;;;;;17.29;34.89;94258.00;5009012;28;20275;-78
2023/04/15 09:07:42;;;;;;;3.72;1.25;;;;;;;17.85;37.31;94267.78;4995731;28;20269;-76
2023/04/15 09:10:09;;;;;;;3.40;1.90;;;;;;;17.79;38.96;94237.72;5003571;28;20654;-77
2023/04/15 09:12:35;;;;;;;2.83;1.50;;;;;;;18.11;37.30;94269.31;5003419;28;20173;-76
2023/04/15 09:15:02;;;;;;;3.05;1.65;;;;;;;17.96;35.76;94262.19;5011498;28;20180;-76
2023/04/15 09:17:28;;;;;;;2.78;1.15;;;;;;;17.73;37.04;94257.41;5005615;28;20184;-77
2023/04/15 09:20:19;;;;;;;3.00;1.48;;;;;;;17.81;37.59;94256.09;5001626;28;20188;-76
2023/04/15 09:22:47;;;;;;;2.25;1.50;;;;;;;17.89;36.50;94227.06;4995420;28;20188;-77
2023/04/15 09:25:22;;;;;;;4.18;1.30;;;;;;;18.34;36.26;94246.56;5007708;28;20950;-77
2023/04/15 09:27:48;;;;;;;1.52;1.17;;;;;;;18.46;32.35;94257.72;5001967;28;20188;-77
2023/04/15 09:30:15;;;;;;;2.70;1.25;;;;;;;18.44;30.09;94257.97;5002458;28;20641;-76
2023/04/15 09:32:53;;;;;;;3.55;1.30;;;;;;;18.17;34.21;94257.56;5005936;28;20259;-76
2023/04/15 09:35:20;;;;;;;3.67;1.20;;;;;;;18.37;33.67;94265.47;5003020;28;20541;-76
2023/04/15 09:37:46;;;;;;;4.40;2.05;;;;;;;18.55;32.26;94265.94;5006218;28;20216;-77
2023/04/15 09:40:12;;;;;;;1.95;1.30;;;;;;;18.71;34.51;94264.81;5016326;28;20184;-76
2023/04/15 09:42:58;;;;;;;2.00;1.20;;;;;;;18.71;35.17;94254.94;5001268;28;20173;-76
2023/04/15 09:45:23;;;;;;;5.18;1.30;;;;;;;18.52;32.62;94237.16;5002297;28;20196;-76
2023/04/15 09:47:52;;;;;;;2.15;1.40;;;;;;;18.21;34.93;94237.31;5002466;28;20256;-76
2023/04/15 09:50:19;;;;;;;2.95;1.10;;;;;;;18.62;36.07;94245.13;5002780;28;20188;-76
2023/04/15 09:52:44;;;;;;;2.00;1.40;;;;;;;18.71;34.05;94254.94;4994012;28;20614;-76
2023/04/15 09:55:11;;;;;;;4.18;1.30;;;;;;;18.73;32.85;94260.78;5000461;28;20177;-77
2023/04/15 09:57:40;;;;;;;1.35;1.02;;;;;;;18.48;31.65;94242.25;5004732;28;20168;-76
2023/04/15 10:00:07;;;;;;;2.53;1.23;;;;;;;18.18;32.16;94237.84;5008473;28;20172;-76
2023/04/15 10:02:34;;;;;;;3.30;1.20;;;;;;;17.97;29.02;94257.66;4997671;28;20173;-76
2023/04/15 10:05:01;;;;;;;2.22;1.10;;;;;;;17.45;30.13;94256.13;5008529;28;20177;-77
2023/04/15 10:07:27;;;;;;;1.50;1.10;;;;;;;17.42;28.63;94275.28;5005724;28;20184;-76
2023/04/15 10:09:53;;;;;;;1.35;1.08;;;;;;;17.42;30.98;94248.66;4999045;28;20205;-76
2023/04/15 10:12:19;;;;;;;2.65;1.45;;;;;;;17.35;30.79;94254.28;5000483;28;20176;-77
2023/04/15 10:14:51;;;;;;;2.28;1.23;;;;;;;17.48;30.94;94262.75;5003937;28;20990;-75
2023/04/15 10:17:17;;;;;;;1.63;1.30;;;;;;;17.89;31.94;94252.88;5003345;28;20173;-77
2023/04/15 10:19:43;;;;;;;3.22;1.15;;;;;;;18.15;33.70;94251.72;5005968;28;20173;-77
2023/04/15 10:22:09;;;;;;;3.30;1.25;;;;;;;18.20;32.22;94225.06;5013012;28;20531;-77
2023/04/15 10:24:36;;;;;;;2.55;1.15;;;;;;;18.15;30.66;94243.75;4993307;28;20185;-76
2023/04/15 10:27:04;;;;;;;5.22;1.52;;;;;;;18.34;34.18;94242.03;4996887;28;20275;-76
2023/04/15 10:29:30;;;;;;;6.78;1.77;;;;;;;18.63;32.52;94236.06;5007498;28;20200;-77
2023/04/15 10:31:57;;;;;;;4.97;1.98;;;;;;;18.72;32.09;94218.41;5007389;28;20267;-76
2023/04/15 10:34:24;;;;;;;2.47;1.13;;;;;;;18.80;31.67;94245.28;4995956;28;20184;-76
2023/04/15 10:36:53;;;;;;;4.57;1.38;;;;;;;18.79;32.40;94233.00;5007100;28;20717;-76
2023/04/15 10:39:42;;;;;;;3.80;1.17;;;;;;;18.75;32.59;94233.84;5001585;28;20215;-76
2023/04/15 10:42:14;;;;;;;1.35;1.17;;;;;;;18.85;32.43;94234.56;5026509;28;20596;-79
2023/04/15 10:44:43;;;;;;;2.47;1.20;;;;;;;17.99;33.30;94231.50;4995566;28;20251;-76
2023/04/15 10:47:11;;;;;;;3.35;1.30;;;;;;;18.05;34.85;94231.25;5008614;28;20191;-77
2023/04/15 10:49:44;;;;;;;2.05;1.20;;;;;;;18.22;34.92;94214.13;5017204;28;20685;-76
2023/04/15 10:52:10;;;;;;;4.75;1.95;;;;;;;18.11;34.56;94221.38;5000563;28;20185;-76
2023/04/15 10:54:38;;;;;;;3.00;1.00;;;;;;;18.25;33.97;94211.69;4990950;28;20252;-76
2023/04/15 10:57:03;;;;;;;4.10;1.60;;;;;;;18.63;35.94;94220.84;4992439;28;20176;-76
2023/04/15 10:59:29;;;;;;;2.80;1.30;;;;;;;18.64;34.92;94214.47;4992024;28;20173;-76
2023/04/15 11:02:00;;;;;;;4.40;1.60;;;;;;;18.53;35.31;94220.88;5006166;28;20211;-75
2023/04/15 11:04:57;;;;;;;2.30;1.35;;;;;;;18.28;34.57;94213.03;4995862;28;20674;-76
2023/04/15 11:07:32;;;;;;;3.03;1.38;;;;;;;18.06;35.27;94218.72;5001546;28;20554;-76
2023/04/15 11:09:57;;;;;;;2.05;1.23;;;;;;;18.11;33.63;94224.03;5000603;28;20246;-76
2023/04/15 11:12:33;;;;;;;1.15;1.05;;;;;;;18.16;35.01;94199.25;5003381;28;20177;-76
2023/04/15 11:14:59;;;;;;;1.88;1.30;;;;;;;18.12;35.38;94208.84;5002478;28;20184;-76
2023/04/15 11:17:28;;;;;;;5.35;1.35;;;;;;;18.24;37.00;94204.81;5003255;28;20610;-76
2023/04/15 11:19:53;;;;;;;1.95;1.35;;;;;;;18.50;35.43;94196.66;5005448;28;20581;-76
2023/04/15 11:22:19;;;;;;;4.60;2.03;;;;;;;18.65;34.96;94199.25;4995218;28;20188;-76
2023/04/15 11:24:50;;;;;;;2.17;1.40;;;;;;;18.59;35.64;94205.69;5008381;28;20229;-76
2023/04/15 11:27:22;;;;;;;3.25;1.73;;;;;;;18.59;32.99;94203.84;5008367;28;20179;-76
2023/04/15 11:29:48;;;;;;;2.45;1.60;;;;;;;18.34;33.88;94212.72;5001597;28;20689;-76